Time;durP1;ratioP1;P1;durP2;ratioP2;P2;SDS_P1;SDS_P2;PMS_P1;PMS_P2;Temp;Humidity;BMP_temperature;BMP_pressure;BME280_temperature;BME280_humidity;BME280_pressure;Samples;Min_cycle;Max_cycle;Signal;HPM_P1;HPM_P2
2023/09/23 00:01:12;;;;;;;5.50;4.45;;;;;;;;;;5031878;28;20276;-71
2023/09/23 00:03:38;;;;;;;8.43;5.65;;;;;;;;;;5022311;28;20175;-71
2023/09/23 00:06:03;;;;;;;8.80;6.32;;;;;;;;;;5011186;28;20175;-70
2023/09/23 00:08:29;;;;;;;7.80;6.10;;;;;;;;;;5009041;28;20182;-71
2023/09/23 00:10:54;;;;;;;8.40;6.57;;;;;;;;;;5014910;28;20527;-71
2023/09/23 00:13:20;;;;;;;12.55;8.43;;;;;;;;;;5012588;28;20216;-70
2023/09/23 00:15:46;;;;;;;11.50;7.95;;;;;;;;;;5010026;28;20187;-70
2023/09/23 00:18:17;;;;;;;12.02;8.02;;;;;;;;;;5010413;28;20719;-70
2023/09/23 00:20:42;;;;;;;16.33;9.50;;;;;;;;;;5027955;28;20745;-70
2023/09/23 00:23:08;;;;;;;14.85;9.00;;;;;;;;;;5041378;28;20269;-71
2023/09/23 00:25:37;;;;;;;14.18;10.02;;;;;;;;;;5026392;28;20239;-71
2023/09/23 00:28:02;;;;;;;10.45;8.57;;;;;;;;;;5029813;28;20539;-71
2023/09/23 00:30:28;;;;;;;12.68;9.40;;;;;;;;;;5032073;28;20178;-71
2023/09/23 00:32:53;;;;;;;14.77;9.90;;;;;;;;;;5028898;28;20190;-71
2023/09/23 00:35:18;;;;;;;11.85;9.02;;;;;;;;;;5031763;28;20178;-71
2023/09/23 00:37:45;;;;;;;12.50;9.55;;;;;;;;;;5029065;28;20190;-70
2023/09/23 00:40:17;;;;;;;11.73;9.18;;;;;;;;;;5031560;28;20607;-71
2023/09/23 00:42:43;;;;;;;12.73;9.02;;;;;;;;;;5024619;28;20189;-70
2023/09/23 00:45:14;;;;;;;12.13;8.85;;;;;;;;;;5021933;28;20182;-70
2023/09/23 00:47:40;;;;;;;16.05;11.10;;;;;;;;;;5031730;28;20178;-70
2023/09/23 00:50:17;;;;;;;15.07;9.93;;;;;;;;;;5030308;28;20186;-71
2023/09/23 00:52:42;;;;;;;14.68;9.98;;;;;;;;;;5029456;28;20182;-71
2023/09/23 00:55:08;;;;;;;15.48;10.48;;;;;;;;;;5030050;28;20182;-71
2023/09/23 00:57:33;;;;;;;15.68;10.98;;;;;;;;;;5031331;28;20178;-70
2023/09/23 00:59:59;;;;;;;17.52;11.27;;;;;;;;;;5030306;28;20234;-71
2023/09/23 01:02:24;;;;;;;15.48;10.68;;;;;;;;;;5028926;28;20190;-70
2023/09/23 01:04:50;;;;;;;18.20;11.13;;;;;;;;;;5029684;28;20711;-70
2023/09/23 01:07:15;;;;;;;16.73;10.98;;;;;;;;;;5031448;28;20175;-70
2023/09/23 01:09:41;;;;;;;15.05;10.40;;;;;;;;;;5031262;28;20232;-71
2023/09/23 01:12:08;;;;;;;16.10;11.13;;;;;;;;;;5023013;28;20732;-71
2023/09/23 01:14:34;;;;;;;17.58;12.15;;;;;;;;;;5029564;28;20669;-71
2023/09/23 01:17:00;;;;;;;18.52;11.88;;;;;;;;;;5032221;28;20202;-71
2023/09/23 01:19:26;;;;;;;16.80;11.32;;;;;;;;;;5030250;28;20198;-71
2023/09/23 01:21:54;;;;;;;17.05;11.45;;;;;;;;;;5028830;28;20219;-70
2023/09/23 01:24:19;;;;;;;19.00;11.50;;;;;;;;;;5029662;28;21309;-70
2023/09/23 01:26:51;;;;;;;18.98;11.88;;;;;;;;;;5029320;28;20171;-71
2023/09/23 01:29:22;;;;;;;17.42;11.93;;;;;;;;;;5023358;28;20175;-71
2023/09/23 01:31:57;;;;;;;16.88;11.15;;;;;;;;;;5032293;28;20213;-70
2023/09/23 01:34:22;;;;;;;16.13;11.52;;;;;;;;;;5033887;28;20565;-70
2023/09/23 01:36:47;;;;;;;14.95;11.52;;;;;;;;;;5035031;28;20182;-70
2023/09/23 01:39:13;;;;;;;15.85;11.02;;;;;;;;;;5034245;28;20195;-71
2023/09/23 01:41:40;;;;;;;20.13;12.85;;;;;;;;;;5033260;28;20244;-70
2023/09/23 01:44:06;;;;;;;20.45;13.52;;;;;;;;;;5030539;28;20179;-70
2023/09/23 01:46:33;;;;;;;18.15;12.18;;;;;;;;;;5027082;28;20174;-70
2023/09/23 01:48:58;;;;;;;17.17;12.18;;;;;;;;;;5031003;28;20182;-70
2023/09/23 01:51:23;;;;;;;19.52;12.88;;;;;;;;;;5035076;28;20247;-70
2023/09/23 01:53:49;;;;;;;18.95;12.13;;;;;;;;;;5032200;28;20186;-71
2023/09/23 01:56:14;;;;;;;16.95;11.80;;;;;;;;;;5032830;28;20181;-71
2023/09/23 01:58:39;;;;;;;18.23;12.57;;;;;;;;;;5032777;28;20209;-71
2023/09/23 02:01:05;;;;;;;19.05;13.45;;;;;;;;;;5031586;28;20202;-71
2023/09/23 02:03:30;;;;;;;27.35;14.90;;;;;;;;;;5032000;28;20201;-71
2023/09/23 02:05:55;;;;;;;22.23;13.82;;;;;;;;;;5034066;28;20175;-71
2023/09/23 02:08:20;;;;;;;19.70;13.18;;;;;;;;;;5034372;28;20178;-71
2023/09/23 02:10:46;;;;;;;20.52;14.07;;;;;;;;;;5033791;28;20616;-70
2023/09/23 02:13:11;;;;;;;22.08;13.68;;;;;;;;;;5032003;28;20650;-70
2023/09/23 02:15:36;;;;;;;20.83;13.02;;;;;;;;;;5032820;28;20559;-70
2023/09/23 02:18:04;;;;;;;20.48;14.23;;;;;;;;;;5030354;28;20206;-71
2023/09/23 02:20:29;;;;;;;21.67;13.93;;;;;;;;;;5031846;28;20174;-72
2023/09/23 02:22:54;;;;;;;23.98;14.50;;;;;;;;;;5031881;28;20182;-70
2023/09/23 02:25:20;;;;;;;24.95;15.43;;;;;;;;;;5033601;28;20607;-71
2023/09/23 02:27:46;;;;;;;18.52;12.23;;;;;;;;;;5033081;28;20722;-71
2023/09/23 02:30:12;;;;;;;27.08;13.05;;;;;;;;;;5034413;28;20575;-73
2023/09/23 02:32:49;;;;;;;22.60;13.48;;;;;;;;;;5032641;28;20281;-71
2023/09/23 02:35:16;;;;;;;19.20;13.20;;;;;;;;;;5033281;28;20227;-71
2023/09/23 02:37:42;;;;;;;18.58;13.50;;;;;;;;;;5034825;28;20262;-71
2023/09/23 02:40:11;;;;;;;19.63;13.32;;;;;;;;;;5033305;28;20206;-71
2023/09/23 02:42:36;;;;;;;19.38;12.77;;;;;;;;;;5032639;28;20247;-71
2023/09/23 02:45:03;;;;;;;18.77;12.68;;;;;;;;;;5028458;28;20269;-71
2023/09/23 02:47:30;;;;;;;16.70;11.90;;;;;;;;;;5034570;28;20201;-71
2023/09/23 02:49:55;;;;;;;19.38;12.98;;;;;;;;;;5043934;28;20204;-70
2023/09/23 02:52:21;;;;;;;17.60;11.77;;;;;;;;;;5042763;28;20225;-71
2023/09/23 02:54:47;;;;;;;16.48;12.65;;;;;;;;;;5044696;28;20182;-71
2023/09/23 02:57:12;;;;;;;19.08;12.45;;;;;;;;;;5043053;28;20183;-71
2023/09/23 02:59:41;;;;;;;17.67;12.50;;;;;;;;;;5045657;28;20202;-71
2023/09/23 03:02:07;;;;;;;18.60;11.80;;;;;;;;;;5042595;28;20186;-71
2023/09/23 03:04:33;;;;;;;19.40;12.05;;;;;;;;;;5038118;28;20182;-71
2023/09/23 03:07:01;;;;;;;18.40;12.32;;;;;;;;;;5037836;28;20238;-71
2023/09/23 03:09:32;;;;;;;19.45;11.90;;;;;;;;;;5037696;28;20224;-71
2023/09/23 03:11:57;;;;;;;17.77;12.02;;;;;;;;;;5036180;28;20271;-71
2023/09/23 03:14:25;;;;;;;20.90;12.18;;;;;;;;;;5035310;28;20182;-71
2023/09/23 03:16:53;;;;;;;18.67;10.95;;;;;;;;;;5036699;28;20223;-71
2023/09/23 03:19:24;;;;;;;19.20;11.80;;;;;;;;;;5036667;28;20677;-72
2023/09/23 03:21:50;;;;;;;16.83;11.32;;;;;;;;;;5037230;28;20212;-71
2023/09/23 03:24:15;;;;;;;21.80;13.05;;;;;;;;;;5034688;28;20581;-71
2023/09/23 03:26:41;;;;;;;19.92;12.15;;;;;;;;;;5037934;28;20550;-70
2023/09/23 03:29:06;;;;;;;21.42;12.25;;;;;;;;;;5036029;28;20247;-71
2023/09/23 03:31:31;;;;;;;16.70;10.40;;;;;;;;;;5037081;28;20659;-71
2023/09/23 03:33:57;;;;;;;18.23;11.23;;;;;;;;;;5034545;28;20192;-71
2023/09/23 03:36:24;;;;;;;17.55;12.10;;;;;;;;;;5035428;28;20189;-72
2023/09/23 03:38:51;;;;;;;18.23;11.18;;;;;;;;;;5037032;28;20218;-72
2023/09/23 03:41:16;;;;;;;22.77;11.20;;;;;;;;;;5033278;28;20191;-72
2023/09/23 03:43:42;;;;;;;17.48;11.15;;;;;;;;;;5032377;28;20181;-72
2023/09/23 03:46:11;;;;;;;15.85;10.77;;;;;;;;;;5026157;28;20174;-72
2023/09/23 03:48:37;;;;;;;15.13;10.80;;;;;;;;;;5025654;28;20258;-72
2023/09/23 03:51:04;;;;;;;16.60;10.18;;;;;;;;;;5031362;28;20485;-71
2023/09/23 03:53:29;;;;;;;13.50;10.02;;;;;;;;;;5030078;28;20205;-71
2023/09/23 03:55:55;;;;;;;15.07;10.35;;;;;;;;;;5051920;28;20183;-71
2023/09/23 03:58:21;;;;;;;16.13;10.00;;;;;;;;;;5031629;28;20209;-71
2023/09/23 04:00:47;;;;;;;16.13;9.95;;;;;;;;;;5031372;28;20201;-71
2023/09/23 04:03:13;;;;;;;19.10;10.05;;;;;;;;;;5028757;28;20174;-71
2023/09/23 04:05:38;;;;;;;17.10;10.30;;;;;;;;;;5028407;28;20219;-71
2023/09/23 04:08:04;;;;;;;17.75;12.00;;;;;;;;;;5025788;28;20174;-71
2023/09/23 04:10:29;;;;;;;14.45;10.77;;;;;;;;;;5030683;28;20166;-71
2023/09/23 04:12:54;;;;;;;17.85;10.75;;;;;;;;;;5030158;28;20170;-71
2023/09/23 04:15:24;;;;;;;17.55;10.55;;;;;;;;;;5030894;28;20210;-71
2023/09/23 04:17:49;;;;;;;18.38;11.27;;;;;;;;;;5028462;28;20258;-71
2023/09/23 04:20:15;;;;;;;14.85;10.30;;;;;;;;;;5031568;28;20257;-71
2023/09/23 04:22:41;;;;;;;18.00;11.40;;;;;;;;;;5031471;28;20700;-71
2023/09/23 04:25:07;;;;;;;16.40;10.40;;;;;;;;;;5030756;28;20178;-71
2023/09/23 04:27:33;;;;;;;18.60;11.65;;;;;;;;;;5032086;28;20588;-72
2023/09/23 04:30:00;;;;;;;17.73;12.25;;;;;;;;;;5030575;28;20183;-72
2023/09/23 04:32:25;;;;;;;16.38;10.73;;;;;;;;;;5027006;28;20198;-72
2023/09/23 04:34:51;;;;;;;14.57;10.55;;;;;;;;;;5029563;28;20661;-70
2023/09/23 04:37:16;;;;;;;16.48;9.30;;;;;;;;;;5029276;28;20625;-70
2023/09/23 04:39:42;;;;;;;15.05;10.70;;;;;;;;;;5029631;28;20210;-71
2023/09/23 04:42:07;;;;;;;18.50;10.18;;;;;;;;;;5030623;28;20198;-71
2023/09/23 04:44:33;;;;;;;17.05;10.57;;;;;;;;;;5031523;28;20231;-71
2023/09/23 04:46:59;;;;;;;16.27;9.93;;;;;;;;;;5025983;28;20261;-71
2023/09/23 04:49:24;;;;;;;17.02;10.32;;;;;;;;;;5026538;28;20233;-71
2023/09/23 04:51:49;;;;;;;17.80;10.45;;;;;;;;;;5030884;28;20198;-71
2023/09/23 04:54:14;;;;;;;17.08;10.32;;;;;;;;;;5029626;28;20174;-70
2023/09/23 04:56:43;;;;;;;18.63;9.32;;;;;;;;;;5030346;28;20264;-71
2023/09/23 04:59:08;;;;;;;12.73;9.43;;;;;;;;;;5031700;28;20266;-71
2023/09/23 05:01:33;;;;;;;18.15;9.73;;;;;;;;;;5029721;28;20636;-70
2023/09/23 05:03:59;;;;;;;17.25;9.57;;;;;;;;;;5030255;28;20667;-71
2023/09/23 05:06:25;;;;;;;13.55;9.40;;;;;;;;;;5025360;28;20662;-71
2023/09/23 05:08:50;;;;;;;18.50;9.00;;;;;;;;;;5034466;28;20332;-72
2023/09/23 05:11:17;;;;;;;19.52;9.93;;;;;;;;;;5048640;28;20689;-71
2023/09/23 05:13:42;;;;;;;14.55;9.35;;;;;;;;;;5033556;28;20182;-71
2023/09/23 05:16:07;;;;;;;13.60;8.63;;;;;;;;;;5045354;28;20182;-71
2023/09/23 05:18:32;;;;;;;13.63;8.93;;;;;;;;;;5035517;28;20198;-71
2023/09/23 05:20:57;;;;;;;13.43;7.93;;;;;;;;;;5034016;28;20199;-72
2023/09/23 05:23:23;;;;;;;12.20;8.30;;;;;;;;;;5032858;28;20178;-69
2023/09/23 05:25:49;;;;;;;14.10;8.60;;;;;;;;;;5034675;28;20611;-71
2023/09/23 05:28:14;;;;;;;16.58;8.57;;;;;;;;;;5033016;28;20186;-70
2023/09/23 05:30:39;;;;;;;15.77;8.88;;;;;;;;;;5033014;28;20194;-70
2023/09/23 05:33:04;;;;;;;12.85;8.52;;;;;;;;;;5030628;28;20189;-71
2023/09/23 05:35:30;;;;;;;17.20;8.95;;;;;;;;;;5034180;28;20189;-72
2023/09/23 05:37:55;;;;;;;11.13;8.45;;;;;;;;;;5034943;28;20186;-70
2023/09/23 05:40:23;;;;;;;10.55;7.10;;;;;;;;;;5033610;28;20245;-70
2023/09/23 05:42:52;;;;;;;10.60;7.25;;;;;;;;;;5034024;28;20632;-70
2023/09/23 05:45:18;;;;;;;18.58;8.30;;;;;;;;;;5033057;28;20273;-71
2023/09/23 05:47:46;;;;;;;14.73;8.23;;;;;;;;;;5030825;28;20654;-71
2023/09/23 05:50:11;;;;;;;14.48;8.00;;;;;;;;;;5028655;28;20584;-71
2023/09/23 05:52:37;;;;;;;16.05;8.07;;;;;;;;;;5027772;28;20213;-71
2023/09/23 05:55:06;;;;;;;10.25;7.07;;;;;;;;;;5027312;28;20187;-71
2023/09/23 05:57:34;;;;;;;12.15;7.55;;;;;;;;;;5025921;28;20182;-71
2023/09/23 05:59:59;;;;;;;11.63;7.20;;;;;;;;;;5033920;28;20660;-71
2023/09/23 06:02:25;;;;;;;14.48;8.70;;;;;;;;;;5023752;28;20288;-71
2023/09/23 06:04:50;;;;;;;13.65;8.10;;;;;;;;;;5033470;28;20197;-71
2023/09/23 06:07:15;;;;;;;10.85;6.72;;;;;;;;;;5034035;28;20171;-71
2023/09/23 06:09:44;;;;;;;10.90;6.88;;;;;;;;;;5032339;28;20174;-70
2023/09/23 06:12:10;;;;;;;12.82;6.93;;;;;;;;;;5045263;22;20246;-66
2023/09/23 06:14:35;;;;;;;11.15;7.47;;;;;;;;;;5012791;28;20179;-66
2023/09/23 06:17:01;;;;;;;14.32;8.70;;;;;;;;;;5011392;28;20277;-66
2023/09/23 06:19:26;;;;;;;12.20;7.45;;;;;;;;;;5011919;28;20218;-67
2023/09/23 06:21:51;;;;;;;13.52;6.55;;;;;;;;;;4999865;28;20722;-66
2023/09/23 06:24:17;;;;;;;11.30;7.18;;;;;;;;;;4992598;28;20183;-68
2023/09/23 06:26:42;;;;;;;12.55;6.80;;;;;;;;;;4987171;28;20183;-67
2023/09/23 06:29:09;;;;;;;12.80;6.82;;;;;;;;;;4991006;28;20192;-67
2023/09/23 06:31:34;;;;;;;12.88;6.63;;;;;;;;;;4992292;28;20200;-67
2023/09/23 06:33:59;;;;;;;8.15;5.97;;;;;;;;;;4991078;28;20237;-67
2023/09/23 06:36:24;;;;;;;14.00;6.93;;;;;;;;;;4992643;28;20459;-67
2023/09/23 06:38:49;;;;;;;12.27;6.20;;;;;;;;;;4992195;28;20686;-67
2023/09/23 06:41:15;;;;;;;11.60;6.85;;;;;;;;;;4991528;28;20574;-66
2023/09/23 06:43:40;;;;;;;9.23;5.93;;;;;;;;;;4992600;28;20210;-66
2023/09/23 06:46:05;;;;;;;11.82;5.90;;;;;;;;;;4991757;28;20210;-67
2023/09/23 06:48:31;;;;;;;11.23;5.40;;;;;;;;;;4992378;28;20186;-66
2023/09/23 06:50:57;;;;;;;9.77;5.40;;;;;;;;;;4989086;28;20183;-67
2023/09/23 06:53:23;;;;;;;9.15;5.75;;;;;;;;;;4990942;28;20191;-68
2023/09/23 06:55:48;;;;;;;15.05;6.65;;;;;;;;;;4992706;28;20183;-68
2023/09/23 06:58:14;;;;;;;13.75;4.72;;;;;;;;;;4990926;28;20242;-68
2023/09/23 07:00:39;;;;;;;10.20;4.78;;;;;;;;;;4990700;28;20298;-67
2023/09/23 07:03:04;;;;;;;10.48;5.15;;;;;;;;;;4984954;28;20214;-67
2023/09/23 07:05:29;;;;;;;7.03;4.40;;;;;;;;;;4980980;28;20247;-67
2023/09/23 07:07:55;;;;;;;6.20;4.55;;;;;;;;;;4988530;28;20167;-67
2023/09/23 07:10:20;;;;;;;7.70;4.68;;;;;;;;;;4991419;28;20180;-67
2023/09/23 07:12:45;;;;;;;8.05;4.97;;;;;;;;;;4991267;28;20604;-66
2023/09/23 07:15:10;;;;;;;11.95;4.55;;;;;;;;;;4992279;28;20215;-66
2023/09/23 07:17:36;;;;;;;8.63;5.07;;;;;;;;;;4991632;28;20258;-66
2023/09/23 07:20:01;;;;;;;6.88;3.90;;;;;;;;;;4991319;28;20565;-66
2023/09/23 07:22:26;;;;;;;6.75;3.90;;;;;;;;;;4991519;28;20204;-68
2023/09/23 07:24:52;;;;;;;9.32;4.30;;;;;;;;;;4990570;28;20717;-67
2023/09/23 07:27:17;;;;;;;13.10;3.95;;;;;;;;;;4990923;28;20215;-66
2023/09/23 07:29:42;;;;;;;8.55;4.03;;;;;;;;;;4990497;28;20184;-67
2023/09/23 07:32:07;;;;;;;6.85;3.60;;;;;;;;;;4990457;28;20215;-67
2023/09/23 07:34:32;;;;;;;7.05;4.15;;;;;;;;;;4988647;28;20180;-66
2023/09/23 07:36:58;;;;;;;7.75;3.97;;;;;;;;;;4991615;28;20651;-66
2023/09/23 07:39:23;;;;;;;5.28;3.47;;;;;;;;;;4992303;28;20203;-66
2023/09/23 07:41:48;;;;;;;7.50;3.45;;;;;;;;;;4991771;28;20612;-68
2023/09/23 07:44:13;;;;;;;6.45;4.28;;;;;;;;;;4989560;28;20251;-67
2023/09/23 07:46:39;;;;;;;10.68;3.85;;;;;;;;;;4989148;28;20263;-67
2023/09/23 07:49:04;;;;;;;7.70;4.13;;;;;;;;;;4985454;28;20223;-67
2023/09/23 07:51:30;;;;;;;6.53;4.00;;;;;;;;;;4987658;28;20287;-67
2023/09/23 07:53:55;;;;;;;8.95;4.28;;;;;;;;;;4986733;28;20188;-67
2023/09/23 07:56:20;;;;;;;5.82;4.05;;;;;;;;;;4981914;28;20207;-67
2023/09/23 07:58:45;;;;;;;8.02;3.83;;;;;;;;;;4985118;28;20195;-66
2023/09/23 08:01:11;;;;;;;9.35;4.13;;;;;;;;;;4989223;28;20286;-66
2023/09/23 08:03:36;;;;;;;7.95;4.05;;;;;;;;;;4983805;28;20171;-66
2023/09/23 08:06:01;;;;;;;4.88;4.05;;;;;;;;;;4984907;28;20184;-66
2023/09/23 08:08:26;;;;;;;7.03;3.90;;;;;;;;;;4995904;28;20660;-66
2023/09/23 08:10:53;;;;;;;6.75;4.22;;;;;;;;;;4989314;28;20550;-67
2023/09/23 08:13:19;;;;;;;5.18;3.95;;;;;;;;;;4984229;28;20199;-67
2023/09/23 08:15:45;;;;;;;7.32;4.28;;;;;;;;;;4988249;28;20194;-67
2023/09/23 08:18:11;;;;;;;7.55;5.05;;;;;;;;;;4989958;28;20587;-66
2023/09/23 08:20:36;;;;;;;7.85;4.57;;;;;;;;;;4990185;28;20207;-66
2023/09/23 08:23:01;;;;;;;5.90;3.80;;;;;;;;;;4988017;28;20326;-67
2023/09/23 08:25:27;;;;;;;13.77;5.25;;;;;;;;;;4987461;28;20612;-68
2023/09/23 08:27:53;;;;;;;9.70;5.55;;;;;;;;;;4991405;28;20661;-67
2023/09/23 08:30:19;;;;;;;8.77;5.15;;;;;;;;;;4989268;28;20594;-67
2023/09/23 08:32:45;;;;;;;6.70;4.60;;;;;;;;;;4989771;28;20793;-67
2023/09/23 08:35:10;;;;;;;7.85;5.55;;;;;;;;;;4989733;28;20287;-67
2023/09/23 08:37:36;;;;;;;6.90;5.13;;;;;;;;;;4990580;28;20738;-67
2023/09/23 08:40:06;;;;;;;7.47;4.35;;;;;;;;;;4988179;28;20580;-67
2023/09/23 08:42:33;;;;;;;7.22;4.35;;;;;;;;;;4989763;28;20262;-67
2023/09/23 08:44:58;;;;;;;10.52;4.55;;;;;;;;;;4989233;28;20184;-67
2023/09/23 08:47:24;;;;;;;7.97;5.57;;;;;;;;;;4988086;28;20188;-67
2023/09/23 08:49:50;;;;;;;7.35;4.45;;;;;;;;;;4985648;28;20192;-67
2023/09/23 08:52:19;;;;;;;12.13;4.20;;;;;;;;;;4989361;28;20683;-67
2023/09/23 08:54:48;;;;;;;6.93;4.25;;;;;;;;;;4990321;28;20605;-67
2023/09/23 08:57:16;;;;;;;6.43;4.38;;;;;;;;;;4988527;28;20195;-66
2023/09/23 08:59:41;;;;;;;14.63;4.32;;;;;;;;;;4985144;28;20721;-66
2023/09/23 09:02:06;;;;;;;8.02;4.07;;;;;;;;;;4967516;28;20238;-66
2023/09/23 09:04:32;;;;;;;10.73;3.85;;;;;;;;;;4972209;28;20172;-66
2023/09/23 09:06:58;;;;;;;6.68;3.30;;;;;;;;;;4985855;28;20593;-66
2023/09/23 09:09:23;;;;;;;6.55;3.22;;;;;;;;;;4981664;28;20188;-66
2023/09/23 09:11:51;;;;;;;5.72;3.22;;;;;;;;;;4978489;28;20500;-67
2023/09/23 09:14:16;;;;;;;7.88;3.25;;;;;;;;;;4989972;28;20560;-67
2023/09/23 09:16:42;;;;;;;5.40;2.50;;;;;;;;;;4988472;28;20183;-68
2023/09/23 09:19:07;;;;;;;8.98;3.20;;;;;;;;;;4991197;28;20203;-67
2023/09/23 09:21:34;;;;;;;7.90;2.78;;;;;;;;;;4991245;28;20690;-66
2023/09/23 09:23:59;;;;;;;5.25;2.67;;;;;;;;;;4991095;28;20179;-66
2023/09/23 09:26:24;;;;;;;8.18;2.58;;;;;;;;;;4988374;28;20660;-67
2023/09/23 09:28:50;;;;;;;6.30;2.58;;;;;;;;;;4990158;28;20274;-67
2023/09/23 09:31:17;;;;;;;4.10;2.20;;;;;;;;;;4986569;28;20719;-67
2023/09/23 09:33:46;;;;;;;12.10;2.55;;;;;;;;;;4990345;28;20176;-66
2023/09/23 09:36:13;;;;;;;3.50;2.40;;;;;;;;;;4990040;28;20657;-66
2023/09/23 09:38:41;;;;;;;4.00;2.50;;;;;;;;;;4990897;28;20203;-66
2023/09/23 09:41:09;;;;;;;8.40;2.15;;;;;;;;;;4984316;28;20572;-66
2023/09/23 09:43:34;;;;;;;4.25;1.88;;;;;;;;;;4987502;28;20670;-66
2023/09/23 09:46:08;;;;;;;6.95;2.15;;;;;;;;;;4982632;28;20188;-66
2023/09/23 09:48:37;;;;;;;3.75;2.10;;;;;;;;;;4985684;28;20326;-66
2023/09/23 09:51:05;;;;;;;5.85;2.22;;;;;;;;;;4990113;28;20667;-67
2023/09/23 09:53:31;;;;;;;4.25;2.00;;;;;;;;;;4992413;28;20175;-67
2023/09/23 09:55:56;;;;;;;6.55;2.00;;;;;;;;;;4994353;28;20186;-66
2023/09/23 09:58:22;;;;;;;4.63;1.80;;;;;;;;;;4986303;28;20215;-66
2023/09/23 10:00:50;;;;;;;7.28;2.00;;;;;;;;;;4991293;28;20264;-69
2023/09/23 10:03:15;;;;;;;4.30;1.77;;;;;;;;;;4991402;28;20186;-67
2023/09/23 10:05:40;;;;;;;4.07;1.60;;;;;;;;;;4994358;28;20175;-67
2023/09/23 10:08:19;;;;;;;3.70;2.03;;;;;;;;;;4993107;28;20175;-66
2023/09/23 10:10:47;;;;;;;6.60;1.50;;;;;;;;;;4988779;28;20809;-66
2023/09/23 10:13:13;;;;;;;4.63;1.52;;;;;;;;;;4986600;28;20549;-66
2023/09/23 10:15:40;;;;;;;1.75;1.25;;;;;;;;;;4985722;28;20220;-67
2023/09/23 10:18:16;;;;;;;3.13;1.42;;;;;;;;;;4988844;28;20509;-67
2023/09/23 10:20:49;;;;;;;4.78;1.63;;;;;;;;;;4990200;28;20207;-66
2023/09/23 10:23:16;;;;;;;2.13;1.20;;;;;;;;;;4990343;28;20674;-66
2023/09/23 10:25:43;;;;;;;2.38;1.00;;;;;;;;;;4990636;28;20579;-66
2023/09/23 10:28:18;;;;;;;1.10;0.80;;;;;;;;;;4989609;28;20191;-65
2023/09/23 10:30:43;;;;;;;2.60;1.00;;;;;;;;;;4990340;28;20233;-66
2023/09/23 10:33:10;;;;;;;1.25;0.80;;;;;;;;;;4990425;28;20632;-67
2023/09/23 10:35:35;;;;;;;0.90;0.70;;;;;;;;;;4991971;28;20662;-67
2023/09/23 10:38:01;;;;;;;1.20;0.93;;;;;;;;;;4990722;28;20198;-66
2023/09/23 10:40:26;;;;;;;1.77;0.93;;;;;;;;;;4994534;28;20195;-67
2023/09/23 10:42:52;;;;;;;2.03;0.80;;;;;;;;;;4990010;28;20693;-66
2023/09/23 10:45:17;;;;;;;1.90;0.80;;;;;;;;;;4989237;28;20187;-66
2023/09/23 10:47:43;;;;;;;1.20;0.90;;;;;;;;;;4988015;28;20199;-65
2023/09/23 10:50:09;;;;;;;3.42;0.60;;;;;;;;;;4990846;28;20176;-66
2023/09/23 10:52:35;;;;;;;1.98;0.82;;;;;;;;;;4989757;28;20693;-66
2023/09/23 10:55:01;;;;;;;1.95;0.70;;;;;;;;;;4988784;28;20179;-66
2023/09/23 10:57:27;;;;;;;3.22;1.30;;;;;;;;;;4992692;28;20190;-66
2023/09/23 10:59:53;;;;;;;1.95;0.90;;;;;;;;;;4992802;28;20647;-67
2023/09/23 11:02:18;;;;;;;1.52;1.00;;;;;;;;;;4991816;28;20195;-66
2023/09/23 11:04:48;;;;;;;3.10;1.38;;;;;;;;;;4990467;28;20662;-67
2023/09/23 11:07:13;;;;;;;3.38;0.98;;;;;;;;;;4985831;28;20232;-66
2023/09/23 11:09:39;;;;;;;3.22;1.10;;;;;;;;;;4985141;28;20703;-67
2023/09/23 11:12:12;;;;;;;0.70;0.60;;;;;;;;;;4981279;28;20210;-66
2023/09/23 11:14:37;;;;;;;3.90;1.15;;;;;;;;;;4987302;28;20234;-66
2023/09/23 11:17:03;;;;;;;4.00;1.33;;;;;;;;;;4985720;28;20184;-66
2023/09/23 11:19:28;;;;;;;1.95;1.00;;;;;;;;;;4988644;28;20211;-66
2023/09/23 11:21:53;;;;;;;2.72;1.00;;;;;;;;;;4992441;28;20206;-67
2023/09/23 11:24:18;;;;;;;2.22;1.13;;;;;;;;;;4991319;28;20207;-65
2023/09/23 11:26:43;;;;;;;1.80;0.80;;;;;;;;;;4989194;28;20175;-66
2023/09/23 11:29:09;;;;;;;1.40;0.90;;;;;;;;;;4990374;28;20202;-66
2023/09/23 11:31:34;;;;;;;2.38;1.10;;;;;;;;;;4986785;28;20298;-66
2023/09/23 11:33:59;;;;;;;3.00;1.05;;;;;;;;;;4992331;28;20184;-67
2023/09/23 11:36:24;;;;;;;3.10;0.77;;;;;;;;;;4981753;28;20207;-67
2023/09/23 11:38:50;;;;;;;1.80;0.82;;;;;;;;;;4991234;28;20203;-65
2023/09/23 11:41:15;;;;;;;2.40;1.10;;;;;;;;;;4989486;28;20195;-66
2023/09/23 11:43:40;;;;;;;1.98;0.57;;;;;;;;;;4989722;28;20262;-67
2023/09/23 11:46:06;;;;;;;3.47;0.80;;;;;;;;;;4989168;28;20172;-67
2023/09/23 11:48:31;;;;;;;3.15;0.70;;;;;;;;;;4991167;28;20194;-67
2023/09/23 11:50:56;;;;;;;1.92;0.35;;;;;;;;;;4992207;28;20175;-67
2023/09/23 11:53:22;;;;;;;2.42;0.52;;;;;;;;;;4971409;28;20679;-67
2023/09/23 11:55:49;;;;;;;0.77;0.30;;;;;;;;;;4987472;28;20184;-66
2023/09/23 11:58:14;;;;;;;0.73;0.45;;;;;;;;;;4983194;28;20184;-67
2023/09/23 12:00:41;;;;;;;2.85;0.50;;;;;;;;;;4989895;28;20246;-67
2023/09/23 12:03:06;;;;;;;1.55;0.50;;;;;;;;;;4988535;28;20172;-67
2023/09/23 12:05:32;;;;;;;2.83;0.57;;;;;;;;;;4990374;28;20621;-67
2023/09/23 12:07:58;;;;;;;4.78;0.82;;;;;;;;;;4986311;28;20175;-67
2023/09/23 12:10:24;;;;;;;0.82;0.60;;;;;;;;;;4987830;28;20263;-66
2023/09/23 12:21:06;;;;;;;3.42;0.40;;;;;;;;;;5027339;28;20238;-71
2023/09/23 12:23:32;;;;;;;3.03;0.43;;;;;;;;;;5026289;28;20219;-71
2023/09/23 12:25:57;;;;;;;0.70;0.20;;;;;;;;;;5030398;28;20178;-72
2023/09/23 12:28:22;;;;;;;1.85;0.70;;;;;;;;;;5022949;28;20235;-73
2023/09/23 12:30:47;;;;;;;1.15;0.47;;;;;;;;;;5022815;28;20245;-72
2023/09/23 12:33:12;;;;;;;7.97;1.02;;;;;;;;;;5008446;28;20586;-72
2023/09/23 12:35:38;;;;;;;1.35;0.50;;;;;;;;;;5021032;28;20178;-72
2023/09/23 12:38:03;;;;;;;1.48;0.73;;;;;;;;;;5019535;28;20179;-72
2023/09/23 12:40:29;;;;;;;2.53;0.40;;;;;;;;;;5019006;28;20199;-73
2023/09/23 12:42:54;;;;;;;1.50;0.70;;;;;;;;;;5004877;28;20286;-72
2023/09/23 12:45:20;;;;;;;2.40;0.70;;;;;;;;;;5023068;28;20179;-71
2023/09/23 12:47:45;;;;;;;3.17;0.60;;;;;;;;;;5025588;28;20174;-71
2023/09/23 12:50:10;;;;;;;2.08;0.60;;;;;;;;;;5027758;28;20182;-71
2023/09/23 12:52:37;;;;;;;5.28;0.95;;;;;;;;;;5004819;28;20268;-72
2023/09/23 12:55:02;;;;;;;1.13;0.73;;;;;;;;;;5027950;28;20257;-72
2023/09/23 12:57:28;;;;;;;3.40;0.77;;;;;;;;;;5008976;28;20268;-72
2023/09/23 12:59:54;;;;;;;2.65;0.40;;;;;;;;;;5025049;28;20202;-71
2023/09/23 13:02:19;;;;;;;5.75;0.65;;;;;;;;;;5020538;28;20576;-72
2023/09/23 13:04:44;;;;;;;2.38;0.63;;;;;;;;;;5028113;28;20674;-73
2023/09/23 13:07:09;;;;;;;3.45;0.73;;;;;;;;;;5032920;28;20193;-71
2023/09/23 13:09:35;;;;;;;4.03;0.50;;;;;;;;;;5024527;28;20178;-73
2023/09/23 13:12:00;;;;;;;1.10;0.50;;;;;;;;;;5029620;28;20245;-71
2023/09/23 13:14:25;;;;;;;1.52;0.60;;;;;;;;;;5025804;28;20174;-72
2023/09/23 13:16:51;;;;;;;2.33;0.93;;;;;;;;;;5032497;28;20186;-72
2023/09/23 13:19:16;;;;;;;0.90;0.55;;;;;;;;;;5040075;28;20209;-72
2023/09/23 13:21:41;;;;;;;1.13;0.50;;;;;;;;;;5033433;28;20210;-72
2023/09/23 13:24:06;;;;;;;3.55;0.68;;;;;;;;;;5036662;28;20262;-72
2023/09/23 13:26:32;;;;;;;1.60;0.50;;;;;;;;;;5030954;28;20213;-72
2023/09/23 13:28:57;;;;;;;2.05;0.50;;;;;;;;;;5037944;28;20192;-73
2023/09/23 13:31:22;;;;;;;1.63;0.55;;;;;;;;;;5036332;28;20205;-72
2023/09/23 13:33:48;;;;;;;1.67;0.45;;;;;;;;;;5027725;28;20183;-72
2023/09/23 13:36:14;;;;;;;1.10;0.50;;;;;;;;;;5036492;28;20181;-73
2023/09/23 13:38:39;;;;;;;9.55;1.13;;;;;;;;;;5033108;28;20578;-73
2023/09/23 13:41:05;;;;;;;2.08;0.98;;;;;;;;;;5017129;28;20179;-72
2023/09/23 13:43:30;;;;;;;0.65;0.40;;;;;;;;;;5024604;28;20186;-73
2023/09/23 13:45:55;;;;;;;2.40;0.63;;;;;;;;;;5026530;28;20222;-73
2023/09/23 13:48:20;;;;;;;1.17;0.50;;;;;;;;;;5011491;28;20241;-73
2023/09/23 13:50:46;;;;;;;1.73;0.43;;;;;;;;;;5024845;28;20179;-73
2023/09/23 13:53:11;;;;;;;1.27;0.35;;;;;;;;;;5025682;28;20209;-73
2023/09/23 13:55:36;;;;;;;1.08;0.32;;;;;;;;;;5022375;28;20195;-73
2023/09/23 13:58:02;;;;;;;1.48;0.32;;;;;;;;;;5030370;28;20262;-74
2023/09/23 14:00:28;;;;;;;0.98;0.52;;;;;;;;;;5009482;28;20202;-72
2023/09/23 14:02:56;;;;;;;1.55;0.35;;;;;;;;;;5027175;28;20195;-72
2023/09/23 14:05:21;;;;;;;4.00;0.50;;;;;;;;;;5009532;28;20247;-72
2023/09/23 14:07:46;;;;;;;2.75;1.05;;;;;;;;;;5024483;28;20592;-72
2023/09/23 14:10:11;;;;;;;1.08;0.40;;;;;;;;;;5029118;28;20204;-72
2023/09/23 14:12:37;;;;;;;1.45;0.70;;;;;;;;;;5024932;28;20209;-73
2023/09/23 14:15:02;;;;;;;1.80;0.47;;;;;;;;;;5029123;28;20678;-73
2023/09/23 14:17:27;;;;;;;1.75;0.50;;;;;;;;;;5022977;28;20189;-73
2023/09/23 14:19:53;;;;;;;2.33;0.45;;;;;;;;;;5019199;28;20206;-73
2023/09/23 14:22:18;;;;;;;1.95;0.80;;;;;;;;;;5023673;28;20198;-73
2023/09/23 14:24:44;;;;;;;3.50;0.50;;;;;;;;;;5007410;28;20195;-73
2023/09/23 14:27:09;;;;;;;4.18;1.23;;;;;;;;;;5009183;28;20225;-73
2023/09/23 14:29:34;;;;;;;0.88;0.43;;;;;;;;;;5018877;28;20222;-73
2023/09/23 14:31:59;;;;;;;3.65;0.60;;;;;;;;;;5010685;28;20589;-73
2023/09/23 14:34:25;;;;;;;2.38;0.50;;;;;;;;;;5033550;28;20174;-73